Terminal Aerodrome Forecast
Issued by NWS

Home | Current Version | Previous Version | Text Only | Print | Product List | Glossary On
Versions: 1 2 3 4 5 6 7 8 9 10 11 12 13 14 15
000
FTUS45 KRIW 252300
TAFBPI
TAF
KBPI 252320Z 2600/2624 31005KT 1SM -SN SCT012 OVC020
      TEMPO 2600/2604 OVC012
     FM260900 01006KT 6SM -SN SCT025 OVC040
     FM261200 VRB05KT P6SM BKN040=

USA.gov is the U.S. government's official web portal to all federal, state and local government web resources and services.